Aviation Digital Data Service (ADDS)

Output produced by METARs form (1314 UTC 31 August 2015)
found at http://aviationweather.gov/adds/metars/
 
KMBS 311122Z 3112/0112 00000KT 1/2SM FG VV002 
     FM311400 VRB03KT 3SM BR SCT015 
     FM311600 25005KT P6SM FEW045 
     FM010900 00000KT 3SM BR SKC